PWSweather.com
Personal Weather Stations
Station Observations
ESTGRALPAZ
Santa Fe, Santa FeAR 3000

Santa FeSanta FeAR 3000

Lat: -31.6280555556, Lon: -60.6908333333

Elevation: 69

Station Type: WH1081

http://www.estaciongralpaz.com.ar

Latest ConditionsUpdated 4:58:01 AM GMT-03:57 Saturday, Apr 21, 2018
Currently Today's Max Today's Min Today's Average
Temperature 71.8°F22.1°C 74.8°F23.8°C 71.8°F22.1°C 73.8°F23.2°C
Dew Point 70.9°F21.6°C 73.4°F23.0°C 70.7°F21.5°C 72.4°F22.4°C
Winds 0.7 mph S1.1 kmh S 8.3 mph S13.4 kmh S - 1.5 mph 2.4 kmh
Wind Gusts 2.2 mph3.5 kmh 13.0 mph20.9 kmh - -
Humidity 97% 97% 93% 95%
Pressure 29.75 in1007.5 mb 29.78 in1008.5 mb 29.74 in1007.1 mb -
Precipitation - 0.48 in12.2 mm - -
Hour Temp Dew Point Humidity Winds Wind Gusts Pressure Precip Precip Rate Daily Precip Total
04:58 AM 71.8°F22.1°C 70.9°F21.6°C 97% 0.7 mph S1.1 kmh S 2.2 mph3.5 kmh 29.75 in1007.5 mb 0.06 in1.5 mm 0.00 in0.0 mm 0.48 in12.2 mm
04:57 AM 71.8°F22.1°C 70.9°F21.6°C 97% 1.6 mph S2.6 kmh S 2.2 mph3.5 kmh 29.75 in1007.5 mb 0.07 in1.8 mm 0.00 in0.0 mm 0.48 in12.2 mm
04:56 AM 71.8°F22.1°C 70.9°F21.6°C 97% 0.7 mph SSW1.1 kmh SSW 2.2 mph3.5 kmh 29.75 in1007.5 mb 0.10 in2.5 mm 0.00 in0.0 mm 0.48 in12.2 mm
04:55 AM 71.8°F22.1°C 70.9°F21.6°C 97% 1.6 mph NE2.6 kmh NE 4.5 mph7.2 kmh 29.76 in1007.8 mb 0.10 in2.5 mm 0.00 in0.0 mm 0.48 in12.2 mm
04:54 AM 71.8°F22.1°C 70.9°F21.6°C 97% Calm Calm 4.5 mph7.2 kmh 29.76 in1007.8 mb 0.16 in4.1 mm 0.00 in0.0 mm 0.48 in12.2 mm
04:53 AM 71.8°F22.1°C 70.9°F21.6°C 97% Calm Calm 4.5 mph7.2 kmh 29.76 in1007.8 mb 0.23 in5.8 mm 0.00 in0.0 mm 0.48 in12.2 mm
04:52 AM 71.8°F22.1°C 70.9°F21.6°C 97% Calm Calm 4.5 mph7.2 kmh 29.76 in1007.8 mb 0.23 in5.8 mm 0.00 in0.0 mm 0.48 in12.2 mm
04:51 AM 71.8°F22.1°C 70.9°F21.6°C 97% Calm Calm 4.5 mph7.2 kmh 29.76 in1007.8 mb 0.26 in6.6 mm 0.00 in0.0 mm 0.48 in12.2 mm
04:50 AM 71.8°F22.1°C 70.9°F21.6°C 97% Calm Calm 4.5 mph7.2 kmh 29.77 in1008.1 mb 0.35 in8.9 mm 0.00 in0.0 mm 0.48 in12.2 mm
04:49 AM 71.8°F22.1°C 70.9°F21.6°C 97% 0.7 mph NE1.1 kmh NE 4.5 mph7.2 kmh 29.77 in1008.1 mb 0.42 in10.7 mm 0.00 in0.0 mm 0.48 in12.2 mm
04:48 AM 71.8°F22.1°C 70.9°F21.6°C 97% Calm Calm 4.5 mph7.2 kmh 29.76 in1007.8 mb 0.42 in10.7 mm 0.00 in0.0 mm 0.48 in12.2 mm
04:47 AM 71.8°F22.1°C 70.9°F21.6°C 97% 0.7 mph E1.1 kmh E 4.5 mph7.2 kmh 29.77 in1008.1 mb 0.46 in11.7 mm 0.00 in0.0 mm 0.48 in12.2 mm
04:46 AM 71.8°F22.1°C 70.9°F21.6°C 97% 0.7 mph E1.1 kmh E 4.5 mph7.2 kmh 29.76 in1007.8 mb 0.46 in11.7 mm 0.00 in0.0 mm 0.48 in12.2 mm
04:45 AM 71.8°F22.1°C 70.9°F21.6°C 97% 3.1 mph SE5.0 kmh SE 4.5 mph7.2 kmh 29.76 in1007.8 mb 0.46 in11.7 mm 0.00 in0.0 mm 0.48 in12.2 mm
04:44 AM 71.8°F22.1°C 70.9°F21.6°C 97% 1.6 mph S2.6 kmh S 3.8 mph6.1 kmh 29.77 in1008.1 mb 0.48 in12.2 mm 0.00 in0.0 mm 0.48 in12.2 mm
04:43 AM 71.8°F22.1°C 70.9°F21.6°C 97% Calm Calm 6.0 mph9.7 kmh 29.76 in1007.8 mb 0.48 in12.2 mm 0.00 in0.0 mm 0.48 in12.2 mm
04:42 AM 71.8°F22.1°C 70.9°F21.6°C 97% 0.7 mph W1.1 kmh W 6.0 mph9.7 kmh 29.77 in1008.1 mb 0.48 in12.2 mm 0.00 in0.0 mm 0.48 in12.2 mm
04:41 AM 71.8°F22.1°C 70.9°F21.6°C 97% 1.6 mph NW2.6 kmh NW 6.9 mph11.1 kmh 29.77 in1008.1 mb 0.48 in12.2 mm 0.00 in0.0 mm 0.48 in12.2 mm
04:40 AM 71.8°F22.1°C 70.9°F21.6°C 97% 0.7 mph NW1.1 kmh NW 6.9 mph11.1 kmh 29.77 in1008.1 mb 0.48 in12.2 mm 0.00 in0.0 mm 0.48 in12.2 mm
04:39 AM 71.8°F22.1°C 70.9°F21.6°C 97% 0.7 mph NW1.1 kmh NW 6.9 mph11.1 kmh 29.77 in1008.1 mb 0.48 in12.2 mm 0.00 in0.0 mm 0.48 in12.2 mm
04:38 AM 71.8°F22.1°C 70.9°F21.6°C 97% 0.7 mph NW1.1 kmh NW 6.9 mph11.1 kmh 29.78 in1008.5 mb 0.48 in12.2 mm 0.00 in0.0 mm 0.48 in12.2 mm
04:37 AM 71.8°F22.1°C 70.9°F21.6°C 97% Calm Calm 6.9 mph11.1 kmh 29.77 in1008.1 mb 0.48 in12.2 mm 0.00 in0.0 mm 0.48 in12.2 mm
04:36 AM 72.0°F22.2°C 71.1°F21.7°C 97% Calm Calm 6.9 mph11.1 kmh 29.76 in1007.8 mb 0.48 in12.2 mm 0.00 in0.0 mm 0.48 in12.2 mm
04:35 AM 72.0°F22.2°C 71.1°F21.7°C 97% Calm Calm 6.9 mph11.1 kmh 29.76 in1007.8 mb 0.48 in12.2 mm 1.20 in30.5 mm 0.48 in12.2 mm
04:34 AM 72.0°F22.2°C 71.1°F21.7°C 97% 0.7 mph WNW1.1 kmh WNW 6.9 mph11.1 kmh 29.77 in1008.1 mb 0.46 in11.7 mm 0.60 in15.2 mm 0.46 in11.7 mm
04:33 AM 72.0°F22.2°C 71.1°F21.7°C 97% 3.8 mph WSW6.1 kmh WSW 6.9 mph11.1 kmh 29.77 in1008.1 mb 0.45 in11.4 mm 0.00 in0.0 mm 0.45 in11.4 mm
04:32 AM 72.0°F22.2°C 71.1°F21.7°C 97% 3.8 mph SW6.1 kmh SW 8.3 mph13.4 kmh 29.77 in1008.1 mb 0.45 in11.4 mm 1.20 in30.5 mm 0.45 in11.4 mm
04:31 AM 72.0°F22.2°C 71.1°F21.7°C 97% 3.1 mph SSW5.0 kmh SSW 8.3 mph13.4 kmh 29.77 in1008.1 mb 0.43 in10.9 mm 0.00 in0.0 mm 0.43 in10.9 mm
04:30 AM 72.0°F22.2°C 71.1°F21.7°C 97% 3.1 mph SSW5.0 kmh SSW 8.3 mph13.4 kmh 29.77 in1008.1 mb 0.43 in10.9 mm 0.00 in0.0 mm 0.43 in10.9 mm
04:29 AM 72.0°F22.2°C 71.1°F21.7°C 97% 1.6 mph S2.6 kmh S 8.3 mph13.4 kmh 29.77 in1008.1 mb 0.43 in10.9 mm 0.00 in0.0 mm 0.43 in10.9 mm
04:28 AM 72.0°F22.2°C 71.1°F21.7°C 97% 1.6 mph S2.6 kmh S 8.3 mph13.4 kmh 29.76 in1007.8 mb 0.43 in10.9 mm 0.60 in15.2 mm 0.43 in10.9 mm
04:27 AM 72.0°F22.2°C 71.1°F21.7°C 97% 1.6 mph SSE2.6 kmh SSE 8.3 mph13.4 kmh 29.76 in1007.8 mb 0.42 in10.7 mm 0.00 in0.0 mm 0.42 in10.7 mm
04:26 AM 72.0°F22.2°C 71.1°F21.7°C 97% 2.2 mph SSE3.5 kmh SSE 8.3 mph13.4 kmh 29.76 in1007.8 mb 0.42 in10.7 mm 0.00 in0.0 mm 0.42 in10.7 mm
04:25 AM 72.0°F22.2°C 71.1°F21.7°C 97% 4.5 mph SSE7.2 kmh SSE 8.3 mph13.4 kmh 29.76 in1007.8 mb 0.42 in10.7 mm 0.00 in0.0 mm 0.42 in10.7 mm
04:24 AM 72.0°F22.2°C 71.1°F21.7°C 97% 2.2 mph SSE3.5 kmh SSE 8.3 mph13.4 kmh 29.76 in1007.8 mb 0.42 in10.7 mm 0.00 in0.0 mm 0.42 in10.7 mm
04:23 AM 72.0°F22.2°C 71.1°F21.7°C 97% 3.8 mph SE6.1 kmh SE 8.3 mph13.4 kmh 29.76 in1007.8 mb 0.42 in10.7 mm 0.00 in0.0 mm 0.42 in10.7 mm
04:22 AM 72.0°F22.2°C 71.1°F21.7°C 97% 6.9 mph SE11.1 kmh SE 8.3 mph13.4 kmh 29.75 in1007.5 mb 0.42 in10.7 mm 0.00 in0.0 mm 0.42 in10.7 mm
04:21 AM 72.0°F22.2°C 71.1°F21.7°C 97% 2.2 mph SE3.5 kmh SE 7.6 mph12.2 kmh 29.75 in1007.5 mb 0.42 in10.7 mm 0.00 in0.0 mm 0.42 in10.7 mm
04:20 AM 72.0°F22.2°C 71.1°F21.7°C 97% 3.1 mph SE5.0 kmh SE 7.6 mph12.2 kmh 29.75 in1007.5 mb 0.42 in10.7 mm 0.00 in0.0 mm 0.42 in10.7 mm
04:19 AM 72.0°F22.2°C 71.1°F21.7°C 97% 5.4 mph SE8.7 kmh SE 7.6 mph12.2 kmh 29.75 in1007.5 mb 0.42 in10.7 mm 0.00 in0.0 mm 0.42 in10.7 mm
04:18 AM 72.0°F22.2°C 71.1°F21.7°C 97% 2.2 mph SE3.5 kmh SE 6.9 mph11.1 kmh 29.74 in1007.1 mb 0.42 in10.7 mm 0.00 in0.0 mm 0.42 in10.7 mm
04:17 AM 72.0°F22.2°C 71.1°F21.7°C 97% 3.8 mph SE6.1 kmh SE 6.9 mph11.1 kmh 29.75 in1007.5 mb 0.42 in10.7 mm 0.00 in0.0 mm 0.42 in10.7 mm
04:16 AM 72.0°F22.2°C 71.1°F21.7°C 97% 3.1 mph SE5.0 kmh SE 6.0 mph9.7 kmh 29.75 in1007.5 mb 0.42 in10.7 mm 0.00 in0.0 mm 0.42 in10.7 mm
04:15 AM 72.0°F22.2°C 71.1°F21.7°C 97% 3.1 mph SE5.0 kmh SE 6.0 mph9.7 kmh 29.74 in1007.1 mb 0.42 in10.7 mm 0.00 in0.0 mm 0.42 in10.7 mm
04:14 AM 72.0°F22.2°C 71.1°F21.7°C 97% 1.6 mph SE2.6 kmh SE 6.0 mph9.7 kmh 29.75 in1007.5 mb 0.42 in10.7 mm 0.00 in0.0 mm 0.42 in10.7 mm
04:13 AM 72.0°F22.2°C 71.1°F21.7°C 97% 3.1 mph SE5.0 kmh SE 6.0 mph9.7 kmh 29.75 in1007.5 mb 0.42 in10.7 mm 0.00 in0.0 mm 0.42 in10.7 mm
04:12 AM 72.0°F22.2°C 71.1°F21.7°C 97% 1.6 mph SE2.6 kmh SE 6.0 mph9.7 kmh 29.74 in1007.1 mb 0.42 in10.7 mm 0.00 in0.0 mm 0.42 in10.7 mm
04:11 AM 72.0°F22.2°C 71.1°F21.7°C 97% 0.7 mph SE1.1 kmh SE 6.0 mph9.7 kmh 29.75 in1007.5 mb 0.42 in10.7 mm 0.00 in0.0 mm 0.42 in10.7 mm
04:10 AM 72.0°F22.2°C 71.1°F21.7°C 97% 3.8 mph SE6.1 kmh SE 6.9 mph11.1 kmh 29.75 in1007.5 mb 0.42 in10.7 mm 0.00 in0.0 mm 0.42 in10.7 mm
04:09 AM 72.0°F22.2°C 71.1°F21.7°C 97% 2.2 mph SE3.5 kmh SE 6.9 mph11.1 kmh 29.75 in1007.5 mb 0.42 in10.7 mm 0.00 in0.0 mm 0.42 in10.7 mm
04:08 AM 72.1°F22.3°C 71.3°F21.8°C 97% 2.2 mph SE3.5 kmh SE 6.9 mph11.1 kmh 29.75 in1007.5 mb 0.42 in10.7 mm 0.00 in0.0 mm 0.42 in10.7 mm
04:07 AM 72.1°F22.3°C 71.3°F21.8°C 97% 1.6 mph SE2.6 kmh SE 7.6 mph12.2 kmh 29.75 in1007.5 mb 0.42 in10.7 mm 0.00 in0.0 mm 0.42 in10.7 mm
04:06 AM 72.1°F22.3°C 71.0°F21.7°C 96% 2.2 mph SE3.5 kmh SE 7.6 mph12.2 kmh 29.75 in1007.5 mb 0.42 in10.7 mm 0.00 in0.0 mm 0.42 in10.7 mm
04:05 AM 72.1°F22.3°C 71.0°F21.7°C 96% 3.8 mph SE6.1 kmh SE 8.3 mph13.4 kmh 29.75 in1007.5 mb 0.42 in10.7 mm 0.00 in0.0 mm 0.42 in10.7 mm
04:04 AM 72.1°F22.3°C 71.0°F21.7°C 96% 1.6 mph SE2.6 kmh SE 8.3 mph13.4 kmh 29.75 in1007.5 mb 0.42 in10.7 mm 0.00 in0.0 mm 0.42 in10.7 mm
04:03 AM 72.1°F22.3°C 71.0°F21.7°C 96% 2.2 mph SE3.5 kmh SE 8.3 mph13.4 kmh 29.75 in1007.5 mb 0.42 in10.7 mm 0.00 in0.0 mm 0.42 in10.7 mm
04:02 AM 72.1°F22.3°C 71.0°F21.7°C 96% 3.8 mph SE6.1 kmh SE 8.3 mph13.4 kmh 29.75 in1007.5 mb 0.42 in10.7 mm 0.00 in0.0 mm 0.42 in10.7 mm
04:01 AM 72.1°F22.3°C 71.0°F21.7°C 96% 1.6 mph SE2.6 kmh SE 13.0 mph20.9 kmh 29.74 in1007.1 mb 0.42 in10.7 mm 0.00 in0.0 mm 0.42 in10.7 mm
04:00 AM 72.1°F22.3°C 71.0°F21.7°C 96% 4.5 mph SE7.2 kmh SE 13.0 mph20.9 kmh 29.75 in1007.5 mb 0.42 in10.7 mm 0.00 in0.0 mm 0.42 in10.7 mm
03:59 AM 72.1°F22.3°C 70.7°F21.5°C 95% 3.1 mph SE5.0 kmh SE 13.0 mph20.9 kmh 29.75 in1007.5 mb 0.42 in10.7 mm 1.20 in30.5 mm 0.42 in10.7 mm
03:58 AM 72.1°F22.3°C 70.7°F21.5°C 95% 2.2 mph SE3.5 kmh SE 13.0 mph20.9 kmh 29.75 in1007.5 mb 0.40 in10.2 mm 0.60 in15.2 mm 0.40 in10.2 mm
03:57 AM 72.1°F22.3°C 70.7°F21.5°C 95% 5.4 mph SE8.7 kmh SE 13.0 mph20.9 kmh 29.74 in1007.1 mb 0.39 in9.9 mm 1.20 in30.5 mm 0.39 in9.9 mm
03:56 AM 72.1°F22.3°C 70.7°F21.5°C 95% 5.4 mph SE8.7 kmh SE 13.0 mph20.9 kmh 29.74 in1007.1 mb 0.37 in9.4 mm 0.60 in15.2 mm 0.37 in9.4 mm
03:55 AM 72.1°F22.3°C 70.7°F21.5°C 95% 4.5 mph SSE7.2 kmh SSE 13.0 mph20.9 kmh 29.75 in1007.5 mb 0.36 in9.1 mm 2.40 in61.0 mm 0.36 in9.1 mm
03:54 AM 72.5°F22.5°C 71.0°F21.7°C 95% 4.5 mph SSE7.2 kmh SSE 13.0 mph20.9 kmh 29.75 in1007.5 mb 0.32 in8.1 mm 4.80 in121.9 mm 0.32 in8.1 mm
03:53 AM 73.0°F22.8°C 71.6°F22.0°C 95% 1.6 mph SSE2.6 kmh SSE 13.0 mph20.9 kmh 29.75 in1007.5 mb 0.24 in6.1 mm 1.20 in30.5 mm 0.24 in6.1 mm
03:52 AM 73.2°F22.9°C 71.7°F22.1°C 95% 3.8 mph SSE6.1 kmh SSE 13.0 mph20.9 kmh 29.75 in1007.5 mb 0.22 in5.6 mm 3.00 in76.2 mm 0.22 in5.6 mm
03:51 AM 73.4°F23.0°C 72.2°F22.3°C 96% 8.3 mph S13.4 kmh S 13.0 mph20.9 kmh 29.75 in1007.5 mb 0.17 in4.3 mm 2.40 in61.0 mm 0.17 in4.3 mm
03:50 AM 73.4°F23.0°C 72.2°F22.3°C 96% 6.9 mph S11.1 kmh S 12.1 mph19.5 kmh 29.75 in1007.5 mb 0.13 in3.3 mm 4.20 in106.7 mm 0.13 in3.3 mm
03:49 AM 73.6°F23.1°C 72.4°F22.4°C 96% 4.5 mph S7.2 kmh S 10.7 mph17.2 kmh 29.77 in1008.1 mb 0.06 in1.5 mm 1.80 in45.7 mm 0.06 in1.5 mm
03:48 AM 73.6°F23.1°C 72.4°F22.4°C 96% 5.4 mph S8.7 kmh S 10.7 mph17.2 kmh 29.77 in1008.1 mb 0.03 in0.8 mm 1.20 in30.5 mm 0.03 in0.8 mm
03:47 AM 73.6°F23.1°C 72.4°F22.4°C 96% 6.9 mph S11.1 kmh S 10.7 mph17.2 kmh 29.77 in1008.1 mb 0.01 in0.3 mm 0.00 in0.0 mm 0.01 in0.3 mm
03:46 AM 73.6°F23.1°C 72.4°F22.4°C 96% 6.0 mph S9.7 kmh S 10.7 mph17.2 kmh 29.76 in1007.8 mb 0.01 in0.3 mm 0.00 in0.0 mm 0.01 in0.3 mm
03:45 AM 73.6°F23.1°C 72.4°F22.4°C 96% 6.9 mph S11.1 kmh S 10.7 mph17.2 kmh 29.76 in1007.8 mb 0.01 in0.3 mm 0.60 in15.2 mm 0.01 in0.3 mm
03:44 AM 73.6°F23.1°C 72.4°F22.4°C 96% 4.5 mph S7.2 kmh S 10.7 mph17.2 kmh 29.77 in1008.1 mb 0.00 in0.0 mm 0.00 in0.0 mm 0.00 in0.0 mm
03:43 AM 73.6°F23.1°C 72.4°F22.4°C 96% 4.5 mph S7.2 kmh S 10.7 mph17.2 kmh 29.77 in1008.1 mb 0.00 in0.0 mm 0.00 in0.0 mm 0.00 in0.0 mm
03:42 AM 73.8°F23.2°C 72.6°F22.6°C 96% 7.6 mph S12.2 kmh S 10.7 mph17.2 kmh 29.76 in1007.8 mb 0.00 in0.0 mm 0.00 in0.0 mm 0.00 in0.0 mm
03:41 AM 73.8°F23.2°C 72.6°F22.6°C 96% 6.9 mph S11.1 kmh S 9.2 mph14.8 kmh 29.76 in1007.8 mb 0.00 in0.0 mm 0.00 in0.0 mm 0.00 in0.0 mm
03:40 AM 73.8°F23.2°C 72.6°F22.6°C 96% 5.4 mph S8.7 kmh S 9.2 mph14.8 kmh 29.75 in1007.5 mb 0.00 in0.0 mm 0.00 in0.0 mm 0.00 in0.0 mm
03:39 AM 73.9°F23.3°C 72.8°F22.7°C 96% 3.8 mph S6.1 kmh S 8.3 mph13.4 kmh 29.75 in1007.5 mb 0.00 in0.0 mm 0.00 in0.0 mm 0.00 in0.0 mm
03:38 AM 73.9°F23.3°C 72.8°F22.7°C 96% 3.8 mph S6.1 kmh S 8.3 mph13.4 kmh 29.75 in1007.5 mb 0.00 in0.0 mm 0.00 in0.0 mm 0.00 in0.0 mm
03:37 AM 73.9°F23.3°C 72.8°F22.7°C 96% 3.1 mph S5.0 kmh S 8.3 mph13.4 kmh 29.74 in1007.1 mb 0.00 in0.0 mm 0.00 in0.0 mm 0.00 in0.0 mm
03:36 AM 73.9°F23.3°C 72.8°F22.7°C 96% 3.8 mph S6.1 kmh S 6.9 mph11.1 kmh 29.74 in1007.1 mb 0.00 in0.0 mm 0.00 in0.0 mm 0.00 in0.0 mm
03:35 AM 73.9°F23.3°C 72.8°F22.7°C 96% 2.2 mph S3.5 kmh S 6.9 mph11.1 kmh 29.75 in1007.5 mb 0.00 in0.0 mm 0.00 in0.0 mm 0.00 in0.0 mm
03:34 AM 73.9°F23.3°C 72.8°F22.7°C 96% 2.2 mph S3.5 kmh S 6.9 mph11.1 kmh 29.75 in1007.5 mb 0.00 in0.0 mm 0.00 in0.0 mm 0.00 in0.0 mm
03:33 AM 73.9°F23.3°C 72.8°F22.7°C 96% 2.2 mph SSE3.5 kmh SSE 7.6 mph12.2 kmh 29.75 in1007.5 mb 0.00 in0.0 mm 0.00 in0.0 mm 0.00 in0.0 mm
03:32 AM 73.9°F23.3°C 72.8°F22.7°C 96% 3.1 mph SSE5.0 kmh SSE 7.6 mph12.2 kmh 29.75 in1007.5 mb 0.00 in0.0 mm 0.00 in0.0 mm 0.00 in0.0 mm
03:31 AM 73.9°F23.3°C 72.8°F22.7°C 96% 2.2 mph SSE3.5 kmh SSE 7.6 mph12.2 kmh 29.75 in1007.5 mb 0.00 in0.0 mm 0.00 in0.0 mm 0.00 in0.0 mm
03:30 AM 73.9°F23.3°C 72.8°F22.7°C 96% 4.5 mph SSE7.2 kmh SSE 8.3 mph13.4 kmh 29.75 in1007.5 mb 0.00 in0.0 mm 0.00 in0.0 mm 0.00 in0.0 mm
03:29 AM 73.9°F23.3°C 72.8°F22.7°C 96% 3.8 mph SSE6.1 kmh SSE 8.3 mph13.4 kmh 29.75 in1007.5 mb 0.00 in0.0 mm 0.00 in0.0 mm 0.00 in0.0 mm
03:28 AM 73.9°F23.3°C 72.8°F22.7°C 96% 3.8 mph SSE6.1 kmh SSE 8.3 mph13.4 kmh 29.75 in1007.5 mb 0.00 in0.0 mm 0.00 in0.0 mm 0.00 in0.0 mm
03:27 AM 73.9°F23.3°C 72.8°F22.7°C 96% 3.1 mph SSE5.0 kmh SSE 8.3 mph13.4 kmh 29.75 in1007.5 mb 0.00 in0.0 mm 0.00 in0.0 mm 0.00 in0.0 mm
03:26 AM 74.1°F23.4°C 73.0°F22.8°C 96% 3.1 mph SSE5.0 kmh SSE 8.3 mph13.4 kmh 29.74 in1007.1 mb 0.00 in0.0 mm 0.00 in0.0 mm 0.00 in0.0 mm
03:25 AM 74.1°F23.4°C 73.0°F22.8°C 96% 3.8 mph SSE6.1 kmh SSE 8.3 mph13.4 kmh 29.75 in1007.5 mb 0.00 in0.0 mm 0.00 in0.0 mm 0.00 in0.0 mm
03:24 AM 74.1°F23.4°C 73.0°F22.8°C 96% 5.4 mph SSE8.7 kmh SSE 8.3 mph13.4 kmh 29.75 in1007.5 mb 0.00 in0.0 mm 0.00 in0.0 mm 0.00 in0.0 mm
03:23 AM 74.1°F23.4°C 73.0°F22.8°C 96% 3.8 mph SSE6.1 kmh SSE 8.3 mph13.4 kmh 29.74 in1007.1 mb 0.00 in0.0 mm 0.00 in0.0 mm 0.00 in0.0 mm
03:22 AM 74.1°F23.4°C 73.0°F22.8°C 96% 1.6 mph SSE2.6 kmh SSE 8.3 mph13.4 kmh 29.74 in1007.1 mb 0.00 in0.0 mm 0.00 in0.0 mm 0.00 in0.0 mm
03:21 AM 73.9°F23.3°C 72.8°F22.7°C 96% 3.8 mph SSE6.1 kmh SSE 8.3 mph13.4 kmh 29.75 in1007.5 mb 0.00 in0.0 mm 0.00 in0.0 mm 0.00 in0.0 mm
03:20 AM 73.9°F23.3°C 72.8°F22.7°C 96% 3.8 mph SSE6.1 kmh SSE 8.3 mph13.4 kmh 29.75 in1007.5 mb 0.00 in0.0 mm 0.00 in0.0 mm 0.00 in0.0 mm
03:19 AM 74.1°F23.4°C 73.0°F22.8°C 96% 4.5 mph SSE7.2 kmh SSE 6.0 mph9.7 kmh 29.75 in1007.5 mb 0.00 in0.0 mm 0.00 in0.0 mm 0.00 in0.0 mm
03:18 AM 74.1°F23.4°C 73.0°F22.8°C 96% 1.6 mph SSE2.6 kmh SSE 6.0 mph9.7 kmh 29.74 in1007.1 mb 0.00 in0.0 mm 0.00 in0.0 mm 0.00 in0.0 mm
03:17 AM 73.9°F23.3°C 72.8°F22.7°C 96% 0.7 mph SSE1.1 kmh SSE 6.0 mph9.7 kmh 29.75 in1007.5 mb 0.00 in0.0 mm 0.00 in0.0 mm 0.00 in0.0 mm
03:16 AM 73.9°F23.3°C 72.8°F22.7°C 96% 1.6 mph SSE2.6 kmh SSE 6.0 mph9.7 kmh 29.75 in1007.5 mb 0.00 in0.0 mm 0.00 in0.0 mm 0.00 in0.0 mm
03:15 AM 73.9°F23.3°C 72.8°F22.7°C 96% 1.6 mph SSE2.6 kmh SSE 6.0 mph9.7 kmh 29.75 in1007.5 mb 0.00 in0.0 mm 0.00 in0.0 mm 0.00 in0.0 mm
03:14 AM 73.9°F23.3°C 72.8°F22.7°C 96% 1.6 mph S2.6 kmh S 6.0 mph9.7 kmh 29.74 in1007.1 mb 0.00 in0.0 mm 0.00 in0.0 mm 0.00 in0.0 mm
03:13 AM 73.9°F23.3°C 72.8°F22.7°C 96% 1.6 mph S2.6 kmh S 6.0 mph9.7 kmh 29.75 in1007.5 mb 0.00 in0.0 mm 0.00 in0.0 mm 0.00 in0.0 mm
03:12 AM 73.9°F23.3°C 72.8°F22.7°C 96% 3.1 mph S5.0 kmh S 6.0 mph9.7 kmh 29.75 in1007.5 mb 0.00 in0.0 mm 0.00 in0.0 mm 0.00 in0.0 mm
03:11 AM 73.9°F23.3°C 72.8°F22.7°C 96% 2.2 mph S3.5 kmh S 6.0 mph9.7 kmh 29.75 in1007.5 mb 0.00 in0.0 mm 0.00 in0.0 mm 0.00 in0.0 mm
03:10 AM 73.9°F23.3°C 72.8°F22.7°C 96% 1.6 mph SSE2.6 kmh SSE 6.0 mph9.7 kmh 29.75 in1007.5 mb 0.00 in0.0 mm 0.00 in0.0 mm 0.00 in0.0 mm
03:09 AM 73.9°F23.3°C 72.8°F22.7°C 96% 2.2 mph SSE3.5 kmh SSE 6.0 mph9.7 kmh 29.75 in1007.5 mb 0.00 in0.0 mm 0.00 in0.0 mm 0.00 in0.0 mm
03:08 AM 73.9°F23.3°C 72.8°F22.7°C 96% 2.2 mph SSE3.5 kmh SSE 4.5 mph7.2 kmh 29.75 in1007.5 mb 0.00 in0.0 mm 0.00 in0.0 mm 0.00 in0.0 mm
03:07 AM 73.9°F23.3°C 72.8°F22.7°C 96% 2.2 mph SE3.5 kmh SE 4.5 mph7.2 kmh 29.75 in1007.5 mb 0.00 in0.0 mm 0.00 in0.0 mm 0.00 in0.0 mm
03:06 AM 73.9°F23.3°C 72.8°F22.7°C 96% 1.6 mph SE2.6 kmh SE 3.8 mph6.1 kmh 29.75 in1007.5 mb 0.00 in0.0 mm 0.00 in0.0 mm 0.00 in0.0 mm
03:05 AM 73.9°F23.3°C 72.8°F22.7°C 96% 0.7 mph SE1.1 kmh SE 5.4 mph8.7 kmh 29.75 in1007.5 mb 0.00 in0.0 mm 0.00 in0.0 mm 0.00 in0.0 mm
03:04 AM 73.9°F23.3°C 72.8°F22.7°C 96% 0.7 mph SE1.1 kmh SE 5.4 mph8.7 kmh 29.75 in1007.5 mb 0.00 in0.0 mm 0.00 in0.0 mm 0.00 in0.0 mm
03:03 AM 73.9°F23.3°C 72.8°F22.7°C 96% 2.2 mph SE3.5 kmh SE 5.4 mph8.7 kmh 29.75 in1007.5 mb 0.00 in0.0 mm 0.00 in0.0 mm 0.00 in0.0 mm
03:02 AM 73.9°F23.3°C 72.8°F22.7°C 96% 1.6 mph SE2.6 kmh SE 5.4 mph8.7 kmh 29.75 in1007.5 mb 0.00 in0.0 mm 0.00 in0.0 mm 0.00 in0.0 mm
03:01 AM 73.9°F23.3°C 72.8°F22.7°C 96% 0.7 mph SE1.1 kmh SE 5.4 mph8.7 kmh 29.75 in1007.5 mb 0.00 in0.0 mm 0.00 in0.0 mm 0.00 in0.0 mm
03:00 AM 73.9°F23.3°C 72.8°F22.7°C 96% 0.7 mph SE1.1 kmh SE 5.4 mph8.7 kmh 29.75 in1007.5 mb 0.00 in0.0 mm 0.00 in0.0 mm 0.00 in0.0 mm
02:59 AM 73.9°F23.3°C 72.8°F22.7°C 96% Calm Calm 5.4 mph8.7 kmh 29.75 in1007.5 mb 0.00 in0.0 mm 0.00 in0.0 mm 0.00 in0.0 mm
02:58 AM 73.9°F23.3°C 72.8°F22.7°C 96% 0.7 mph SE1.1 kmh SE 5.4 mph8.7 kmh 29.75 in1007.5 mb 0.00 in0.0 mm 0.00 in0.0 mm 0.00 in0.0 mm
02:57 AM 73.9°F23.3°C 72.8°F22.7°C 96% 2.2 mph SE3.5 kmh SE 5.4 mph8.7 kmh 29.75 in1007.5 mb 0.00 in0.0 mm 0.00 in0.0 mm 0.00 in0.0 mm
02:56 AM 73.9°F23.3°C 72.8°F22.7°C 96% 1.6 mph SE2.6 kmh SE 6.0 mph9.7 kmh 29.75 in1007.5 mb 0.00 in0.0 mm 0.00 in0.0 mm 0.00 in0.0 mm
02:55 AM 73.9°F23.3°C 72.8°F22.7°C 96% 3.1 mph SE5.0 kmh SE 6.0 mph9.7 kmh 29.75 in1007.5 mb 0.00 in0.0 mm 0.00 in0.0 mm 0.00 in0.0 mm
02:54 AM 73.9°F23.3°C 72.8°F22.7°C 96% 0.7 mph SE1.1 kmh SE 6.0 mph9.7 kmh 29.75 in1007.5 mb 0.00 in0.0 mm 0.00 in0.0 mm 0.00 in0.0 mm
02:53 AM 73.9°F23.3°C 72.8°F22.7°C 96% 0.7 mph SSE1.1 kmh SSE 8.3 mph13.4 kmh 29.75 in1007.5 mb 0.00 in0.0 mm 0.00 in0.0 mm 0.00 in0.0 mm
02:52 AM 73.9°F23.3°C 72.8°F22.7°C 96% 1.6 mph SSE2.6 kmh SSE 8.3 mph13.4 kmh 29.75 in1007.5 mb 0.00 in0.0 mm 0.00 in0.0 mm 0.00 in0.0 mm
02:51 AM 73.9°F23.3°C 72.8°F22.7°C 96% Calm Calm 8.3 mph13.4 kmh 29.75 in1007.5 mb 0.00 in0.0 mm 0.00 in0.0 mm 0.00 in0.0 mm
02:50 AM 73.9°F23.3°C 72.8°F22.7°C 96% 1.6 mph SSE2.6 kmh SSE 8.3 mph13.4 kmh 29.75 in1007.5 mb 0.00 in0.0 mm 0.00 in0.0 mm 0.00 in0.0 mm
02:49 AM 73.9°F23.3°C 72.8°F22.7°C 96% 1.6 mph S2.6 kmh S 8.3 mph13.4 kmh 29.75 in1007.5 mb 0.00 in0.0 mm 0.00 in0.0 mm 0.00 in0.0 mm
02:48 AM 73.9°F23.3°C 72.8°F22.7°C 96% 0.7 mph S1.1 kmh S 8.3 mph13.4 kmh 29.75 in1007.5 mb 0.00 in0.0 mm 0.00 in0.0 mm 0.00 in0.0 mm
02:47 AM 73.9°F23.3°C 72.8°F22.7°C 96% 2.2 mph S3.5 kmh S 8.3 mph13.4 kmh 29.75 in1007.5 mb 0.00 in0.0 mm 0.00 in0.0 mm 0.00 in0.0 mm
02:46 AM 74.1°F23.4°C 73.0°F22.8°C 96% 3.1 mph S5.0 kmh S 8.3 mph13.4 kmh 29.75 in1007.5 mb 0.00 in0.0 mm 0.00 in0.0 mm 0.00 in0.0 mm
02:45 AM 74.1°F23.4°C 73.0°F22.8°C 96% 3.1 mph S5.0 kmh S 8.3 mph13.4 kmh 29.75 in1007.5 mb 0.00 in0.0 mm 0.00 in0.0 mm 0.00 in0.0 mm
02:44 AM 74.1°F23.4°C 73.0°F22.8°C 96% 3.1 mph S5.0 kmh S 8.3 mph13.4 kmh 29.75 in1007.5 mb 0.00 in0.0 mm 0.00 in0.0 mm 0.00 in0.0 mm
02:43 AM 74.1°F23.4°C 73.0°F22.8°C 96% 4.5 mph S7.2 kmh S 8.3 mph13.4 kmh 29.76 in1007.8 mb 0.00 in0.0 mm 0.00 in0.0 mm 0.00 in0.0 mm
02:42 AM 74.1°F23.4°C 73.0°F22.8°C 96% 2.2 mph S3.5 kmh S 7.6 mph12.2 kmh 29.76 in1007.8 mb 0.00 in0.0 mm 0.00 in0.0 mm 0.00 in0.0 mm
02:41 AM 74.1°F23.4°C 73.0°F22.8°C 96% 3.8 mph S6.1 kmh S 7.6 mph12.2 kmh 29.75 in1007.5 mb 0.00 in0.0 mm 0.00 in0.0 mm 0.00 in0.0 mm
02:40 AM 74.1°F23.4°C 73.0°F22.8°C 96% 3.8 mph S6.1 kmh S 7.6 mph12.2 kmh 29.75 in1007.5 mb 0.00 in0.0 mm 0.00 in0.0 mm 0.00 in0.0 mm
02:39 AM 74.1°F23.4°C 73.0°F22.8°C 96% 3.1 mph SSE5.0 kmh SSE 7.6 mph12.2 kmh 29.75 in1007.5 mb 0.00 in0.0 mm 0.00 in0.0 mm 0.00 in0.0 mm
02:38 AM 74.1°F23.4°C 72.6°F22.6°C 95% 5.4 mph SSE8.7 kmh SSE 7.6 mph12.2 kmh 29.75 in1007.5 mb 0.00 in0.0 mm 0.00 in0.0 mm 0.00 in0.0 mm
02:37 AM 74.1°F23.4°C 72.6°F22.6°C 95% 3.8 mph SSE6.1 kmh SSE 7.6 mph12.2 kmh 29.76 in1007.8 mb 0.00 in0.0 mm 0.00 in0.0 mm 0.00 in0.0 mm
02:36 AM 74.1°F23.4°C 72.6°F22.6°C 95% 3.1 mph SSE5.0 kmh SSE 7.6 mph12.2 kmh 29.75 in1007.5 mb 0.00 in0.0 mm 0.00 in0.0 mm 0.00 in0.0 mm
02:35 AM 74.3°F23.5°C 72.8°F22.7°C 95% 4.5 mph SSE7.2 kmh SSE 7.6 mph12.2 kmh 29.75 in1007.5 mb 0.00 in0.0 mm 0.00 in0.0 mm 0.00 in0.0 mm
02:34 AM 74.3°F23.5°C 72.8°F22.7°C 95% 3.8 mph SSE6.1 kmh SSE 7.6 mph12.2 kmh 29.75 in1007.5 mb 0.00 in0.0 mm 0.00 in0.0 mm 0.00 in0.0 mm
02:33 AM 74.3°F23.5°C 72.8°F22.7°C 95% 3.8 mph SSE6.1 kmh SSE 6.0 mph9.7 kmh 29.75 in1007.5 mb 0.00 in0.0 mm 0.00 in0.0 mm 0.00 in0.0 mm
02:32 AM 74.3°F23.5°C 72.8°F22.7°C 95% 2.2 mph SSE3.5 kmh SSE 6.0 mph9.7 kmh 29.75 in1007.5 mb 0.00 in0.0 mm 0.00 in0.0 mm 0.00 in0.0 mm
02:31 AM 74.3°F23.5°C 72.8°F22.7°C 95% 2.2 mph SSE3.5 kmh SSE 6.0 mph9.7 kmh 29.75 in1007.5 mb 0.00 in0.0 mm 0.00 in0.0 mm 0.00 in0.0 mm
02:30 AM 74.3°F23.5°C 72.8°F22.7°C 95% 0.7 mph S1.1 kmh S 6.0 mph9.7 kmh 29.76 in1007.8 mb 0.00 in0.0 mm 0.00 in0.0 mm 0.00 in0.0 mm
02:29 AM 74.3°F23.5°C 72.8°F22.7°C 95% 3.1 mph S5.0 kmh S 6.0 mph9.7 kmh 29.75 in1007.5 mb 0.00 in0.0 mm 0.00 in0.0 mm 0.00 in0.0 mm
02:28 AM 74.5°F23.6°C 73.0°F22.8°C 95% 0.7 mph S1.1 kmh S 6.0 mph9.7 kmh 29.75 in1007.5 mb 0.00 in0.0 mm 0.00 in0.0 mm 0.00 in0.0 mm
02:27 AM 74.5°F23.6°C 73.0°F22.8°C 95% 1.6 mph S2.6 kmh S 6.0 mph9.7 kmh 29.75 in1007.5 mb 0.00 in0.0 mm 0.00 in0.0 mm 0.00 in0.0 mm
02:26 AM 74.5°F23.6°C 73.0°F22.8°C 95% 1.6 mph S2.6 kmh S 6.0 mph9.7 kmh 29.76 in1007.8 mb 0.00 in0.0 mm 0.00 in0.0 mm 0.00 in0.0 mm
02:25 AM 74.5°F23.6°C 73.0°F22.8°C 95% Calm Calm 6.0 mph9.7 kmh 29.75 in1007.5 mb 0.00 in0.0 mm 0.00 in0.0 mm 0.00 in0.0 mm
02:24 AM 74.5°F23.6°C 73.0°F22.8°C 95% 1.6 mph S2.6 kmh S 6.0 mph9.7 kmh 29.75 in1007.5 mb 0.00 in0.0 mm 0.00 in0.0 mm 0.00 in0.0 mm
02:23 AM 74.5°F23.6°C 73.0°F22.8°C 95% 2.2 mph S3.5 kmh S 6.0 mph9.7 kmh 29.75 in1007.5 mb 0.00 in0.0 mm 0.00 in0.0 mm 0.00 in0.0 mm
02:22 AM 74.7°F23.7°C 73.2°F22.9°C 95% 2.2 mph S3.5 kmh S 6.0 mph9.7 kmh 29.75 in1007.5 mb 0.00 in0.0 mm 0.00 in0.0 mm 0.00 in0.0 mm
02:21 AM 74.7°F23.7°C 73.2°F22.9°C 95% 3.8 mph S6.1 kmh S 6.0 mph9.7 kmh 29.75 in1007.5 mb 0.00 in0.0 mm 0.00 in0.0 mm 0.00 in0.0 mm
02:20 AM 74.7°F23.7°C 73.2°F22.9°C 95% 3.1 mph S5.0 kmh S 6.0 mph9.7 kmh 29.75 in1007.5 mb 0.00 in0.0 mm 0.00 in0.0 mm 0.00 in0.0 mm
02:19 AM 74.5°F23.6°C 73.0°F22.8°C 95% 1.6 mph SSE2.6 kmh SSE 3.8 mph6.1 kmh 29.75 in1007.5 mb 0.00 in0.0 mm 0.00 in0.0 mm 0.00 in0.0 mm
02:18 AM 74.5°F23.6°C 72.7°F22.6°C 94% 2.2 mph SSE3.5 kmh SSE 3.8 mph6.1 kmh 29.75 in1007.5 mb 0.00 in0.0 mm 0.00 in0.0 mm 0.00 in0.0 mm
02:17 AM 74.5°F23.6°C 72.7°F22.6°C 94% 1.6 mph SSE2.6 kmh SSE 3.1 mph5.0 kmh 29.76 in1007.8 mb 0.00 in0.0 mm 0.00 in0.0 mm 0.00 in0.0 mm
02:16 AM 74.5°F23.6°C 72.7°F22.6°C 94% 1.6 mph S2.6 kmh S 3.1 mph5.0 kmh 29.76 in1007.8 mb 0.00 in0.0 mm 0.00 in0.0 mm 0.00 in0.0 mm
02:15 AM 74.5°F23.6°C 72.7°F22.6°C 94% 1.6 mph S2.6 kmh S 3.1 mph5.0 kmh 29.75 in1007.5 mb 0.00 in0.0 mm 0.00 in0.0 mm 0.00 in0.0 mm
02:14 AM 74.7°F23.7°C 72.9°F22.7°C 94% 0.7 mph S1.1 kmh S 3.1 mph5.0 kmh 29.76 in1007.8 mb 0.00 in0.0 mm 0.00 in0.0 mm 0.00 in0.0 mm
02:13 AM 74.7°F23.7°C 72.9°F22.7°C 94% 1.6 mph S2.6 kmh S 3.1 mph5.0 kmh 29.75 in1007.5 mb 0.00 in0.0 mm 0.00 in0.0 mm 0.00 in0.0 mm
02:12 AM 74.7°F23.7°C 72.9°F22.7°C 94% Calm Calm 1.6 mph2.6 kmh 29.75 in1007.5 mb 0.00 in0.0 mm 0.00 in0.0 mm 0.00 in0.0 mm
02:11 AM 74.7°F23.7°C 72.9°F22.7°C 94% Calm Calm 2.2 mph3.5 kmh 29.75 in1007.5 mb 0.00 in0.0 mm 0.00 in0.0 mm 0.00 in0.0 mm
02:10 AM 74.7°F23.7°C 73.2°F22.9°C 95% Calm Calm 2.2 mph3.5 kmh 29.76 in1007.8 mb 0.00 in0.0 mm 0.00 in0.0 mm 0.00 in0.0 mm
02:09 AM 74.7°F23.7°C 73.2°F22.9°C 95% 0.7 mph S1.1 kmh S 2.2 mph3.5 kmh 29.75 in1007.5 mb 0.00 in0.0 mm 0.00 in0.0 mm 0.00 in0.0 mm
02:08 AM 74.8°F23.8°C 73.4°F23.0°C 95% Calm Calm 2.2 mph3.5 kmh 29.75 in1007.5 mb 0.00 in0.0 mm 0.00 in0.0 mm 0.00 in0.0 mm
02:07 AM 74.8°F23.8°C 73.4°F23.0°C 95% Calm Calm 2.2 mph3.5 kmh 29.76 in1007.8 mb 0.00 in0.0 mm 0.00 in0.0 mm 0.00 in0.0 mm
02:06 AM 74.8°F23.8°C 73.4°F23.0°C 95% Calm Calm 2.2 mph3.5 kmh 29.75 in1007.5 mb 0.00 in0.0 mm 0.00 in0.0 mm 0.00 in0.0 mm
02:05 AM 74.8°F23.8°C 73.4°F23.0°C 95% Calm Calm 2.2 mph3.5 kmh 29.75 in1007.5 mb 0.00 in0.0 mm 0.00 in0.0 mm 0.00 in0.0 mm
02:04 AM 74.8°F23.8°C 73.4°F23.0°C 95% Calm Calm 2.2 mph3.5 kmh 29.75 in1007.5 mb 0.00 in0.0 mm 0.00 in0.0 mm 0.00 in0.0 mm
02:03 AM 74.7°F23.7°C 73.2°F22.9°C 95% Calm Calm 2.2 mph3.5 kmh 29.75 in1007.5 mb 0.00 in0.0 mm 0.00 in0.0 mm 0.00 in0.0 mm
02:02 AM 74.7°F23.7°C 73.2°F22.9°C 95% Calm Calm 6.0 mph9.7 kmh 29.75 in1007.5 mb 0.00 in0.0 mm 0.00 in0.0 mm 0.00 in0.0 mm
02:01 AM 74.7°F23.7°C 73.2°F22.9°C 95% Calm Calm 6.0 mph9.7 kmh 29.75 in1007.5 mb 0.00 in0.0 mm 0.00 in0.0 mm 0.00 in0.0 mm
02:00 AM 74.7°F23.7°C 73.2°F22.9°C 95% 0.7 mph S1.1 kmh S 6.0 mph9.7 kmh 29.75 in1007.5 mb 0.00 in0.0 mm 0.00 in0.0 mm 0.00 in0.0 mm
01:59 AM 74.7°F23.7°C 73.2°F22.9°C 95% 0.7 mph S1.1 kmh S 6.0 mph9.7 kmh 29.76 in1007.8 mb 0.00 in0.0 mm 0.00 in0.0 mm 0.00 in0.0 mm
01:58 AM 74.7°F23.7°C 73.2°F22.9°C 95% Calm Calm 6.0 mph9.7 kmh 29.76 in1007.8 mb 0.00 in0.0 mm 0.00 in0.0 mm 0.00 in0.0 mm
01:57 AM 74.7°F23.7°C 73.2°F22.9°C 95% Calm Calm 6.0 mph9.7 kmh 29.76 in1007.8 mb 0.00 in0.0 mm 0.00 in0.0 mm 0.00 in0.0 mm
01:56 AM 74.7°F23.7°C 73.2°F22.9°C 95% Calm Calm 6.0 mph9.7 kmh 29.75 in1007.5 mb 0.00 in0.0 mm 0.00 in0.0 mm 0.00 in0.0 mm
01:55 AM 74.7°F23.7°C 73.2°F22.9°C 95% Calm Calm 6.0 mph9.7 kmh 29.76 in1007.8 mb 0.00 in0.0 mm 0.00 in0.0 mm 0.00 in0.0 mm
01:54 AM 74.7°F23.7°C 73.2°F22.9°C 95% Calm Calm 6.0 mph9.7 kmh 29.76 in1007.8 mb 0.00 in0.0 mm 0.00 in0.0 mm 0.00 in0.0 mm
01:53 AM 74.7°F23.7°C 73.2°F22.9°C 95% 4.5 mph S7.2 kmh S 6.0 mph9.7 kmh 29.76 in1007.8 mb 0.00 in0.0 mm 0.00 in0.0 mm 0.00 in0.0 mm
01:52 AM 74.5°F23.6°C 73.0°F22.8°C 95% 2.2 mph S3.5 kmh S 4.5 mph7.2 kmh 29.76 in1007.8 mb 0.00 in0.0 mm 0.00 in0.0 mm 0.00 in0.0 mm
01:51 AM 74.5°F23.6°C 73.0°F22.8°C 95% 2.2 mph S3.5 kmh S 4.5 mph7.2 kmh 29.76 in1007.8 mb 0.00 in0.0 mm 0.00 in0.0 mm 0.00 in0.0 mm
01:50 AM 74.5°F23.6°C 73.0°F22.8°C 95% 1.6 mph S2.6 kmh S 4.5 mph7.2 kmh 29.76 in1007.8 mb 0.00 in0.0 mm 0.00 in0.0 mm 0.00 in0.0 mm
01:49 AM 74.5°F23.6°C 73.0°F22.8°C 95% 1.6 mph SSW2.6 kmh SSW 4.5 mph7.2 kmh 29.76 in1007.8 mb 0.00 in0.0 mm 0.00 in0.0 mm 0.00 in0.0 mm
01:48 AM 74.5°F23.6°C 73.0°F22.8°C 95% Calm Calm 2.2 mph3.5 kmh 29.76 in1007.8 mb 0.00 in0.0 mm 0.00 in0.0 mm 0.00 in0.0 mm
01:47 AM 74.5°F23.6°C 73.0°F22.8°C 95% 0.7 mph SW1.1 kmh SW 2.2 mph3.5 kmh 29.76 in1007.8 mb 0.00 in0.0 mm 0.00 in0.0 mm 0.00 in0.0 mm
01:46 AM 74.5°F23.6°C 73.0°F22.8°C 95% Calm Calm 3.8 mph6.1 kmh 29.76 in1007.8 mb 0.00 in0.0 mm 0.00 in0.0 mm 0.00 in0.0 mm
01:45 AM 74.3°F23.5°C 72.8°F22.7°C 95% 0.7 mph S1.1 kmh S 3.8 mph6.1 kmh 29.76 in1007.8 mb 0.00 in0.0 mm 0.00 in0.0 mm 0.00 in0.0 mm
01:44 AM 74.5°F23.6°C 73.0°F22.8°C 95% 0.7 mph S1.1 kmh S 3.8 mph6.1 kmh 29.75 in1007.5 mb 0.00 in0.0 mm 0.00 in0.0 mm 0.00 in0.0 mm
01:43 AM 74.3°F23.5°C 72.8°F22.7°C 95% 0.7 mph S1.1 kmh S 3.8 mph6.1 kmh 29.76 in1007.8 mb 0.00 in0.0 mm 0.00 in0.0 mm 0.00 in0.0 mm
01:42 AM 74.3°F23.5°C 72.8°F22.7°C 95% Calm Calm 3.8 mph6.1 kmh 29.76 in1007.8 mb 0.00 in0.0 mm 0.00 in0.0 mm 0.00 in0.0 mm
01:41 AM 74.3°F23.5°C 72.8°F22.7°C 95% Calm Calm 3.8 mph6.1 kmh 29.75 in1007.5 mb 0.00 in0.0 mm 0.00 in0.0 mm 0.00 in0.0 mm
01:40 AM 74.3°F23.5°C 72.8°F22.7°C 95% 0.7 mph S1.1 kmh S 3.8 mph6.1 kmh 29.77 in1008.1 mb 0.00 in0.0 mm 0.00 in0.0 mm 0.00 in0.0 mm
01:39 AM 74.3°F23.5°C 72.8°F22.7°C 95% Calm Calm 3.8 mph6.1 kmh 29.76 in1007.8 mb 0.00 in0.0 mm 0.00 in0.0 mm 0.00 in0.0 mm
01:38 AM 74.3°F23.5°C 72.8°F22.7°C 95% Calm Calm 3.8 mph6.1 kmh 29.76 in1007.8 mb 0.00 in0.0 mm 0.00 in0.0 mm 0.00 in0.0 mm
01:37 AM 74.3°F23.5°C 72.8°F22.7°C 95% 1.6 mph S2.6 kmh S 3.8 mph6.1 kmh 29.76 in1007.8 mb 0.00 in0.0 mm 0.00 in0.0 mm 0.00 in0.0 mm
01:36 AM 74.3°F23.5°C 72.8°F22.7°C 95% 1.6 mph S2.6 kmh S 3.8 mph6.1 kmh 29.76 in1007.8 mb 0.00 in0.0 mm 0.00 in0.0 mm 0.00 in0.0 mm
01:35 AM 74.3°F23.5°C 72.8°F22.7°C 95% 0.7 mph SSE1.1 kmh SSE 2.2 mph3.5 kmh 29.76 in1007.8 mb 0.00 in0.0 mm 0.00 in0.0 mm 0.00 in0.0 mm
01:34 AM 74.3°F23.5°C 72.8°F22.7°C 95% Calm Calm 2.2 mph3.5 kmh 29.76 in1007.8 mb 0.00 in0.0 mm 0.00 in0.0 mm 0.00 in0.0 mm
01:33 AM 74.1°F23.4°C 72.6°F22.6°C 95% 1.6 mph SE2.6 kmh SE 2.2 mph3.5 kmh 29.76 in1007.8 mb 0.00 in0.0 mm 0.00 in0.0 mm 0.00 in0.0 mm
01:32 AM 74.3°F23.5°C 72.8°F22.7°C 95% Calm Calm -- 29.76 in1007.8 mb 0.00 in0.0 mm 0.00 in0.0 mm 0.00 in0.0 mm
01:31 AM 74.3°F23.5°C 72.8°F22.7°C 95% Calm Calm -- 29.75 in1007.5 mb 0.00 in0.0 mm 0.00 in0.0 mm 0.00 in0.0 mm
01:30 AM 74.3°F23.5°C 72.8°F22.7°C 95% Calm Calm -- 29.76 in1007.8 mb 0.00 in0.0 mm 0.00 in0.0 mm 0.00 in0.0 mm
01:29 AM 74.3°F23.5°C 72.8°F22.7°C 95% Calm Calm -- 29.75 in1007.5 mb 0.00 in0.0 mm 0.00 in0.0 mm 0.00 in0.0 mm
01:28 AM 74.3°F23.5°C 72.8°F22.7°C 95% Calm Calm -- 29.75 in1007.5 mb 0.00 in0.0 mm 0.00 in0.0 mm 0.00 in0.0 mm
01:27 AM 74.3°F23.5°C 72.8°F22.7°C 95% Calm Calm -- 29.76 in1007.8 mb 0.00 in0.0 mm 0.00 in0.0 mm 0.00 in0.0 mm
01:26 AM 74.3°F23.5°C 72.8°F22.7°C 95% Calm Calm -- 29.76 in1007.8 mb 0.00 in0.0 mm 0.00 in0.0 mm 0.00 in0.0 mm
01:25 AM 74.3°F23.5°C 72.8°F22.7°C 95% Calm Calm -- 29.76 in1007.8 mb 0.00 in0.0 mm 0.00 in0.0 mm 0.00 in0.0 mm
01:24 AM 74.3°F23.5°C 72.8°F22.7°C 95% Calm Calm -- 29.75 in1007.5 mb 0.00 in0.0 mm 0.00 in0.0 mm 0.00 in0.0 mm
01:23 AM 74.3°F23.5°C 72.8°F22.7°C 95% Calm Calm -- 29.76 in1007.8 mb 0.00 in0.0 mm 0.00 in0.0 mm 0.00 in0.0 mm
01:22 AM 74.3°F23.5°C 72.8°F22.7°C 95% Calm Calm -- 29.75 in1007.5 mb 0.00 in0.0 mm 0.00 in0.0 mm 0.00 in0.0 mm
01:21 AM 74.3°F23.5°C 72.8°F22.7°C 95% Calm Calm -- 29.75 in1007.5 mb 0.00 in0.0 mm 0.00 in0.0 mm 0.00 in0.0 mm
01:20 AM 74.3°F23.5°C 72.8°F22.7°C 95% Calm Calm -- 29.76 in1007.8 mb 0.00 in0.0 mm 0.00 in0.0 mm 0.00 in0.0 mm
01:19 AM 74.3°F23.5°C 72.8°F22.7°C 95% Calm Calm -- 29.75 in1007.5 mb 0.00 in0.0 mm 0.00 in0.0 mm 0.00 in0.0 mm
01:18 AM 74.3°F23.5°C 72.8°F22.7°C 95% Calm Calm -- 29.75 in1007.5 mb 0.00 in0.0 mm 0.00 in0.0 mm 0.00 in0.0 mm
01:17 AM 74.3°F23.5°C 72.8°F22.7°C 95% Calm Calm 0.7 mph1.1 kmh 29.75 in1007.5 mb 0.00 in0.0 mm 0.00 in0.0 mm 0.00 in0.0 mm
01:16 AM 74.3°F23.5°C 72.8°F22.7°C 95% Calm Calm 1.6 mph2.6 kmh 29.76 in1007.8 mb 0.00 in0.0 mm 0.00 in0.0 mm 0.00 in0.0 mm
01:15 AM 74.3°F23.5°C 72.8°F22.7°C 95% Calm Calm 1.6 mph2.6 kmh 29.75 in1007.5 mb 0.00 in0.0 mm 0.00 in0.0 mm 0.00 in0.0 mm
01:14 AM 74.3°F23.5°C 72.8°F22.7°C 95% Calm Calm 1.6 mph2.6 kmh 29.75 in1007.5 mb 0.00 in0.0 mm 0.00 in0.0 mm 0.00 in0.0 mm
01:13 AM 74.3°F23.5°C 72.8°F22.7°C 95% Calm Calm 1.6 mph2.6 kmh 29.76 in1007.8 mb 0.00 in0.0 mm 0.00 in0.0 mm 0.00 in0.0 mm
01:12 AM 74.5°F23.6°C 73.0°F22.8°C 95% Calm Calm 1.6 mph2.6 kmh 29.76 in1007.8 mb 0.00 in0.0 mm 0.00 in0.0 mm 0.00 in0.0 mm
01:11 AM 74.5°F23.6°C 73.0°F22.8°C 95% Calm Calm 1.6 mph2.6 kmh 29.76 in1007.8 mb 0.00 in0.0 mm 0.00 in0.0 mm 0.00 in0.0 mm
01:10 AM 74.5°F23.6°C 73.0°F22.8°C 95% Calm Calm 1.6 mph2.6 kmh 29.75 in1007.5 mb 0.00 in0.0 mm 0.00 in0.0 mm 0.00 in0.0 mm
01:09 AM 74.5°F23.6°C 73.0°F22.8°C 95% Calm Calm 1.6 mph2.6 kmh 29.75 in1007.5 mb 0.00 in0.0 mm 0.00 in0.0 mm 0.00 in0.0 mm
01:08 AM 74.5°F23.6°C 73.0°F22.8°C 95% Calm Calm 1.6 mph2.6 kmh 29.75 in1007.5 mb 0.00 in0.0 mm 0.00 in0.0 mm 0.00 in0.0 mm
01:07 AM 74.5°F23.6°C 73.0°F22.8°C 95% Calm Calm 1.6 mph2.6 kmh 29.76 in1007.8 mb 0.00 in0.0 mm 0.00 in0.0 mm 0.00 in0.0 mm
01:06 AM 74.5°F23.6°C 73.0°F22.8°C 95% 0.7 mph SE1.1 kmh SE 1.6 mph2.6 kmh 29.75 in1007.5 mb 0.00 in0.0 mm 0.00 in0.0 mm 0.00 in0.0 mm
01:05 AM 74.5°F23.6°C 73.0°F22.8°C 95% Calm Calm 1.6 mph2.6 kmh 29.75 in1007.5 mb 0.00 in0.0 mm 0.00 in0.0 mm 0.00 in0.0 mm
01:04 AM 74.5°F23.6°C 73.0°F22.8°C 95% Calm Calm 1.6 mph2.6 kmh 29.76 in1007.8 mb 0.00 in0.0 mm 0.00 in0.0 mm 0.00 in0.0 mm
01:03 AM 74.5°F23.6°C 73.0°F22.8°C 95% Calm Calm 1.6 mph2.6 kmh 29.76 in1007.8 mb 0.00 in0.0 mm 0.00 in0.0 mm 0.00 in0.0 mm
01:02 AM 74.5°F23.6°C 73.0°F22.8°C 95% Calm Calm 1.6 mph2.6 kmh 29.76 in1007.8 mb 0.00 in0.0 mm 0.00 in0.0 mm 0.00 in0.0 mm
01:01 AM 74.5°F23.6°C 73.0°F22.8°C 95% Calm Calm 2.2 mph3.5 kmh 29.75 in1007.5 mb 0.00 in0.0 mm 0.00 in0.0 mm 0.00 in0.0 mm
01:00 AM 74.5°F23.6°C 73.0°F22.8°C 95% Calm Calm 2.2 mph3.5 kmh 29.75 in1007.5 mb 0.00 in0.0 mm 0.00 in0.0 mm 0.00 in0.0 mm
12:59 AM 74.5°F23.6°C 73.0°F22.8°C 95% Calm Calm 2.2 mph3.5 kmh 29.76 in1007.8 mb 0.00 in0.0 mm 0.00 in0.0 mm 0.00 in0.0 mm
12:58 AM 74.5°F23.6°C 73.0°F22.8°C 95% 0.7 mph SE1.1 kmh SE 2.2 mph3.5 kmh 29.76 in1007.8 mb 0.00 in0.0 mm 0.00 in0.0 mm 0.00 in0.0 mm
12:57 AM 74.5°F23.6°C 73.0°F22.8°C 95% Calm Calm 2.2 mph3.5 kmh 29.76 in1007.8 mb 0.00 in0.0 mm 0.00 in0.0 mm 0.00 in0.0 mm
12:56 AM 74.5°F23.6°C 73.0°F22.8°C 95% 0.7 mph SE1.1 kmh SE 2.2 mph3.5 kmh 29.76 in1007.8 mb 0.00 in0.0 mm 0.00 in0.0 mm 0.00 in0.0 mm
12:55 AM 74.5°F23.6°C 73.0°F22.8°C 95% Calm Calm 2.2 mph3.5 kmh 29.76 in1007.8 mb 0.00 in0.0 mm 0.00 in0.0 mm 0.00 in0.0 mm
12:54 AM 74.5°F23.6°C 73.0°F22.8°C 95% 0.7 mph SE1.1 kmh SE 2.2 mph3.5 kmh 29.75 in1007.5 mb 0.00 in0.0 mm 0.00 in0.0 mm 0.00 in0.0 mm
12:53 AM 74.5°F23.6°C 73.0°F22.8°C 95% Calm Calm 2.2 mph3.5 kmh 29.76 in1007.8 mb 0.00 in0.0 mm 0.00 in0.0 mm 0.00 in0.0 mm
12:52 AM 74.5°F23.6°C 73.0°F22.8°C 95% 0.7 mph SE1.1 kmh SE 2.2 mph3.5 kmh 29.75 in1007.5 mb 0.00 in0.0 mm 0.00 in0.0 mm 0.00 in0.0 mm
12:51 AM 74.5°F23.6°C 73.0°F22.8°C 95% Calm Calm 1.6 mph2.6 kmh 29.75 in1007.5 mb 0.00 in0.0 mm 0.00 in0.0 mm 0.00 in0.0 mm
12:50 AM 74.5°F23.6°C 73.0°F22.8°C 95% Calm Calm 1.6 mph2.6 kmh 29.76 in1007.8 mb 0.00 in0.0 mm 0.00 in0.0 mm 0.00 in0.0 mm
12:49 AM 74.5°F23.6°C 73.0°F22.8°C 95% 0.7 mph SE1.1 kmh SE 1.6 mph2.6 kmh 29.75 in1007.5 mb 0.00 in0.0 mm 0.00 in0.0 mm 0.00 in0.0 mm
12:48 AM 74.5°F23.6°C 73.0°F22.8°C 95% Calm Calm 1.6 mph2.6 kmh 29.75 in1007.5 mb 0.00 in0.0 mm 0.00 in0.0 mm 0.00 in0.0 mm
12:47 AM 74.5°F23.6°C 73.0°F22.8°C 95% 0.7 mph SE1.1 kmh SE 1.6 mph2.6 kmh 29.75 in1007.5 mb 0.00 in0.0 mm 0.00 in0.0 mm 0.00 in0.0 mm
12:46 AM 74.5°F23.6°C 73.0°F22.8°C 95% 0.7 mph SE1.1 kmh SE 1.6 mph2.6 kmh 29.75 in1007.5 mb 0.00 in0.0 mm 0.00 in0.0 mm 0.00 in0.0 mm
12:45 AM 74.5°F23.6°C 73.0°F22.8°C 95% Calm Calm 1.6 mph2.6 kmh 29.75 in1007.5 mb 0.00 in0.0 mm 0.00 in0.0 mm 0.00 in0.0 mm
12:44 AM 74.5°F23.6°C 73.0°F22.8°C 95% 0.7 mph SE1.1 kmh SE 1.6 mph2.6 kmh 29.75 in1007.5 mb 0.00 in0.0 mm 0.00 in0.0 mm 0.00 in0.0 mm
12:43 AM 74.5°F23.6°C 73.0°F22.8°C 95% Calm Calm 1.6 mph2.6 kmh 29.76 in1007.8 mb 0.00 in0.0 mm 0.00 in0.0 mm 0.00 in0.0 mm
12:42 AM 74.5°F23.6°C 73.0°F22.8°C 95% Calm Calm 1.6 mph2.6 kmh 29.75 in1007.5 mb 0.00 in0.0 mm 0.00 in0.0 mm 0.00 in0.0 mm
12:41 AM 74.5°F23.6°C 73.0°F22.8°C 95% Calm Calm 1.6 mph2.6 kmh 29.76 in1007.8 mb 0.00 in0.0 mm 0.00 in0.0 mm 0.00 in0.0 mm
12:40 AM 74.3°F23.5°C 72.8°F22.7°C 95% 0.7 mph SE1.1 kmh SE 1.6 mph2.6 kmh 29.75 in1007.5 mb 0.00 in0.0 mm 0.00 in0.0 mm 0.00 in0.0 mm
12:39 AM 74.3°F23.5°C 72.8°F22.7°C 95% Calm Calm 1.6 mph2.6 kmh 29.75 in1007.5 mb 0.00 in0.0 mm 0.00 in0.0 mm 0.00 in0.0 mm
12:38 AM 74.3°F23.5°C 72.8°F22.7°C 95% Calm Calm 1.6 mph2.6 kmh 29.75 in1007.5 mb 0.00 in0.0 mm 0.00 in0.0 mm 0.00 in0.0 mm
12:37 AM 74.3°F23.5°C 72.8°F22.7°C 95% Calm Calm 1.6 mph2.6 kmh 29.75 in1007.5 mb 0.00 in0.0 mm 0.00 in0.0 mm 0.00 in0.0 mm
12:36 AM 74.3°F23.5°C 72.8°F22.7°C 95% Calm Calm 1.6 mph2.6 kmh 29.76 in1007.8 mb 0.00 in0.0 mm 0.00 in0.0 mm 0.00 in0.0 mm
12:35 AM 74.3°F23.5°C 72.8°F22.7°C 95% Calm Calm 1.6 mph2.6 kmh 29.75 in1007.5 mb 0.00 in0.0 mm 0.00 in0.0 mm 0.00 in0.0 mm
12:34 AM 74.3°F23.5°C 72.8°F22.7°C 95% Calm Calm 1.6 mph2.6 kmh 29.75 in1007.5 mb 0.00 in0.0 mm 0.00 in0.0 mm 0.00 in0.0 mm
12:33 AM 74.3°F23.5°C 72.8°F22.7°C 95% Calm Calm 1.6 mph2.6 kmh 29.75 in1007.5 mb 0.00 in0.0 mm 0.00 in0.0 mm 0.00 in0.0 mm
12:32 AM 74.3°F23.5°C 72.8°F22.7°C 95% Calm Calm 1.6 mph2.6 kmh 29.75 in1007.5 mb 0.00 in0.0 mm 0.00 in0.0 mm 0.00 in0.0 mm
12:31 AM 74.3°F23.5°C 72.8°F22.7°C 95% 0.7 mph SE1.1 kmh SE 1.6 mph2.6 kmh 29.75 in1007.5 mb 0.00 in0.0 mm 0.00 in0.0 mm 0.00 in0.0 mm
12:30 AM 74.3°F23.5°C 72.8°F22.7°C 95% Calm Calm 1.6 mph2.6 kmh 29.76 in1007.8 mb 0.00 in0.0 mm 0.00 in0.0 mm 0.00 in0.0 mm
12:29 AM 74.5°F23.6°C 73.0°F22.8°C 95% Calm Calm 1.6 mph2.6 kmh 29.75 in1007.5 mb 0.00 in0.0 mm 0.00 in0.0 mm 0.00 in0.0 mm
12:28 AM 74.5°F23.6°C 72.7°F22.6°C 94% Calm Calm 1.6 mph2.6 kmh 29.75 in1007.5 mb 0.00 in0.0 mm 0.00 in0.0 mm 0.00 in0.0 mm
12:27 AM 74.5°F23.6°C 72.7°F22.6°C 94% Calm Calm 2.2 mph3.5 kmh 29.76 in1007.8 mb 0.00 in0.0 mm 0.00 in0.0 mm 0.00 in0.0 mm
12:26 AM 74.5°F23.6°C 72.7°F22.6°C 94% Calm Calm 2.2 mph3.5 kmh 29.75 in1007.5 mb 0.00 in0.0 mm 0.00 in0.0 mm 0.00 in0.0 mm
12:25 AM 74.5°F23.6°C 72.7°F22.6°C 94% Calm Calm 2.2 mph3.5 kmh 29.76 in1007.8 mb 0.00 in0.0 mm 0.00 in0.0 mm 0.00 in0.0 mm
12:24 AM 74.5°F23.6°C 72.7°F22.6°C 94% 0.7 mph ESE1.1 kmh ESE 2.2 mph3.5 kmh 29.75 in1007.5 mb 0.00 in0.0 mm 0.00 in0.0 mm 0.00 in0.0 mm
12:23 AM 74.5°F23.6°C 72.7°F22.6°C 94% 0.7 mph ESE1.1 kmh ESE 2.2 mph3.5 kmh 29.75 in1007.5 mb 0.00 in0.0 mm 0.00 in0.0 mm 0.00 in0.0 mm
12:22 AM 74.5°F23.6°C 72.7°F22.6°C 94% Calm Calm 2.2 mph3.5 kmh 29.75 in1007.5 mb 0.00 in0.0 mm 0.00 in0.0 mm 0.00 in0.0 mm
12:21 AM 74.5°F23.6°C 72.7°F22.6°C 94% Calm Calm 2.2 mph3.5 kmh 29.75 in1007.5 mb 0.00 in0.0 mm 0.00 in0.0 mm 0.00 in0.0 mm
12:20 AM 74.5°F23.6°C 72.7°F22.6°C 94% 0.7 mph SE1.1 kmh SE 2.2 mph3.5 kmh 29.76 in1007.8 mb 0.00 in0.0 mm 0.00 in0.0 mm 0.00 in0.0 mm
12:19 AM 74.5°F23.6°C 72.7°F22.6°C 94% 0.7 mph SE1.1 kmh SE 2.2 mph3.5 kmh 29.75 in1007.5 mb 0.00 in0.0 mm 0.00 in0.0 mm 0.00 in0.0 mm
12:18 AM 74.5°F23.6°C 72.7°F22.6°C 94% Calm Calm 2.2 mph3.5 kmh 29.75 in1007.5 mb 0.00 in0.0 mm 0.00 in0.0 mm 0.00 in0.0 mm
12:17 AM 74.5°F23.6°C 72.7°F22.6°C 94% 0.7 mph SE1.1 kmh SE 2.2 mph3.5 kmh 29.75 in1007.5 mb 0.00 in0.0 mm 0.00 in0.0 mm 0.00 in0.0 mm
12:16 AM 74.5°F23.6°C 72.7°F22.6°C 94% 0.7 mph SE1.1 kmh SE 2.2 mph3.5 kmh 29.75 in1007.5 mb 0.00 in0.0 mm 0.00 in0.0 mm 0.00 in0.0 mm
12:15 AM 74.5°F23.6°C 72.7°F22.6°C 94% 0.7 mph SE1.1 kmh SE 2.2 mph3.5 kmh 29.75 in1007.5 mb 0.00 in0.0 mm 0.00 in0.0 mm 0.00 in0.0 mm
12:14 AM 74.5°F23.6°C 72.7°F22.6°C 94% Calm Calm 1.6 mph2.6 kmh 29.75 in1007.5 mb 0.00 in0.0 mm 0.00 in0.0 mm 0.00 in0.0 mm
12:13 AM 74.5°F23.6°C 72.7°F22.6°C 94% Calm Calm 1.6 mph2.6 kmh 29.76 in1007.8 mb 0.00 in0.0 mm 0.00 in0.0 mm 0.00 in0.0 mm
12:12 AM 74.5°F23.6°C 72.7°F22.6°C 94% 0.7 mph SE1.1 kmh SE 1.6 mph2.6 kmh 29.75 in1007.5 mb 0.00 in0.0 mm 0.00 in0.0 mm 0.00 in0.0 mm
12:11 AM 74.5°F23.6°C 72.4°F22.4°C 93% Calm Calm 1.6 mph2.6 kmh 29.76 in1007.8 mb 0.00 in0.0 mm 0.00 in0.0 mm 0.00 in0.0 mm
12:10 AM 74.5°F23.6°C 72.4°F22.4°C 93% Calm Calm 1.6 mph2.6 kmh 29.76 in1007.8 mb 0.00 in0.0 mm 0.00 in0.0 mm 0.00 in0.0 mm
12:09 AM 74.5°F23.6°C 72.4°F22.4°C 93% Calm Calm 1.6 mph2.6 kmh 29.76 in1007.8 mb 0.00 in0.0 mm 0.00 in0.0 mm 0.00 in0.0 mm
12:08 AM 74.7°F23.7°C 72.5°F22.5°C 93% Calm Calm 1.6 mph2.6 kmh 29.76 in1007.8 mb 0.00 in0.0 mm 0.00 in0.0 mm 0.00 in0.0 mm
12:07 AM 74.7°F23.7°C 72.5°F22.5°C 93% Calm Calm 1.6 mph2.6 kmh 29.77 in1008.1 mb 0.00 in0.0 mm 0.00 in0.0 mm 0.00 in0.0 mm
12:06 AM 74.7°F23.7°C 72.5°F22.5°C 93% Calm Calm 1.6 mph2.6 kmh 29.76 in1007.8 mb 0.00 in0.0 mm 0.00 in0.0 mm 0.00 in0.0 mm
12:05 AM 74.7°F23.7°C 72.5°F22.5°C 93% Calm Calm 2.2 mph3.5 kmh 29.76 in1007.8 mb 0.00 in0.0 mm 0.00 in0.0 mm 0.00 in0.0 mm
12:04 AM 74.7°F23.7°C 72.5°F22.5°C 93% Calm Calm 2.2 mph3.5 kmh 29.77 in1008.1 mb 0.00 in0.0 mm 0.00 in0.0 mm 0.00 in0.0 mm
12:03 AM 74.7°F23.7°C 72.5°F22.5°C 93% Calm Calm 2.2 mph3.5 kmh 29.76 in1007.8 mb 0.00 in0.0 mm 0.00 in0.0 mm 0.00 in0.0 mm
12:02 AM 74.8°F23.8°C 72.7°F22.6°C 93% Calm Calm 2.2 mph3.5 kmh 29.76 in1007.8 mb 0.00 in0.0 mm 0.00 in0.0 mm 0.00 in0.0 mm
12:01 AM 74.8°F23.8°C 72.7°F22.6°C 93% Calm Calm 2.2 mph3.5 kmh 29.76 in1007.8 mb 0.00 in0.0 mm 0.00 in0.0 mm 0.00 in0.0 mm
12:00 AM 74.8°F23.8°C 72.7°F22.6°C 93% Calm Calm 2.2 mph3.5 kmh 29.76 in1007.8 mb 0.00 in0.0 mm 0.00 in0.0 mm 0.00 in0.0 mm